createdAt,value
2022-09-02T00:01:22.396Z,13.60
2022-09-02T00:03:49.457Z,13.70
2022-09-02T00:06:17.483Z,13.70
2022-09-02T00:08:45.006Z,13.70
2022-09-02T00:11:19.285Z,13.60
2022-09-02T00:13:48.028Z,13.60
2022-09-02T00:16:15.201Z,13.50
2022-09-02T00:18:43.138Z,13.60
2022-09-02T00:21:14.302Z,13.60
2022-09-02T00:23:42.765Z,13.50
2022-09-02T00:26:10.119Z,13.60
2022-09-02T00:28:37.117Z,13.50
2022-09-02T00:31:04.075Z,13.50
2022-09-02T00:33:31.758Z,13.50
2022-09-02T00:36:04.063Z,13.50
2022-09-02T00:38:36.959Z,13.50
2022-09-02T00:41:08.476Z,13.50
2022-09-02T00:43:55.186Z,13.50
2022-09-02T00:46:25.057Z,13.40
2022-09-02T00:49:08.259Z,13.40
2022-09-02T00:52:02.866Z,13.40
2022-09-02T00:54:32.585Z,13.30
2022-09-02T00:57:02.549Z,13.30
2022-09-02T00:59:50.770Z,13.30
2022-09-02T01:02:17.817Z,13.30
2022-09-02T01:04:46.662Z,13.30
2022-09-02T01:07:13.450Z,13.30
2022-09-02T01:09:40.801Z,13.30
2022-09-02T01:12:08.914Z,13.30
2022-09-02T01:14:35.805Z,13.20
2022-09-02T01:17:03.521Z,13.20
2022-09-02T01:19:35.418Z,13.10
2022-09-02T01:22:05.597Z,13.10
2022-09-02T01:24:34.768Z,13.10
2022-09-02T01:27:01.641Z,13.10
2022-09-02T01:29:29.011Z,13.10
2022-09-02T01:31:55.941Z,13.00
2022-09-02T01:34:23.161Z,13.00
2022-09-02T01:36:50.089Z,13.00
2022-09-02T01:39:17.232Z,13.00
2022-09-02T01:41:45.190Z,12.90
2022-09-02T01:44:12.324Z,12.80
2022-09-02T01:46:39.876Z,12.80
2022-09-02T01:49:07.035Z,12.80
2022-09-02T01:51:33.937Z,12.80
2022-09-02T01:54:01.725Z,12.80
2022-09-02T01:56:28.686Z,12.80
2022-09-02T01:58:55.679Z,12.80
2022-09-02T02:01:26.387Z,12.70
2022-09-02T02:03:53.858Z,12.70
2022-09-02T02:06:23.420Z,12.70
2022-09-02T02:08:52.671Z,12.70
2022-09-02T02:11:24.970Z,12.70
2022-09-02T02:13:56.889Z,12.70
2022-09-02T02:16:24.312Z,12.70
2022-09-02T02:18:51.411Z,12.70
2022-09-02T02:21:18.257Z,12.70
2022-09-02T02:23:47.793Z,12.60
2022-09-02T02:26:14.618Z,12.60
2022-09-02T02:28:41.637Z,12.60
2022-09-02T02:31:09.484Z,12.60
2022-09-02T02:33:38.394Z,12.60
2022-09-02T02:36:07.266Z,12.60
2022-09-02T02:38:36.619Z,12.60
2022-09-02T02:41:06.475Z,12.60
2022-09-02T02:43:36.931Z,12.50
2022-09-02T02:46:04.508Z,12.50
2022-09-02T02:48:32.794Z,12.50
2022-09-02T02:50:59.886Z,12.50
2022-09-02T02:53:29.749Z,12.50
2022-09-02T02:55:57.269Z,12.40
2022-09-02T02:58:24.049Z,12.40
2022-09-02T03:00:51.260Z,12.40
2022-09-02T03:03:22.386Z,12.40
2022-09-02T03:05:52.655Z,12.40
2022-09-02T03:08:21.059Z,12.30
2022-09-02T03:10:54.240Z,12.30
2022-09-02T03:13:24.153Z,12.20
2022-09-02T03:15:51.609Z,12.20
2022-09-02T03:18:20.219Z,12.20
2022-09-02T03:20:48.899Z,12.20
2022-09-02T03:23:17.414Z,12.20
2022-09-02T03:25:47.909Z,12.10
2022-09-02T03:28:27.265Z,12.10
2022-09-02T03:30:54.758Z,12.20
2022-09-02T03:33:23.481Z,12.10
2022-09-02T03:35:51.422Z,12.10
2022-09-02T03:38:18.984Z,12.20
2022-09-02T03:40:46.157Z,12.10
2022-09-02T03:43:13.172Z,12.10
2022-09-02T03:45:41.946Z,12.10
2022-09-02T03:48:13.407Z,12.10
2022-09-02T03:50:43.848Z,12.00
2022-09-02T03:53:19.306Z,12.00
2022-09-02T03:55:50.814Z,12.00
2022-09-02T03:58:19.809Z,12.00
2022-09-02T04:00:53.407Z,11.90
2022-09-02T04:03:22.715Z,11.90
2022-09-02T04:05:51.790Z,11.90
2022-09-02T04:08:19.798Z,11.90
2022-09-02T04:10:47.686Z,11.90
2022-09-02T04:13:14.713Z,11.90
2022-09-02T04:15:44.945Z,11.90
2022-09-02T04:18:12.661Z,11.90
2022-09-02T04:20:41.341Z,11.80
2022-09-02T04:23:09.201Z,11.80
2022-09-02T04:25:43.370Z,11.80
2022-09-02T04:28:12.999Z,11.80
2022-09-02T04:30:41.512Z,11.80
2022-09-02T04:33:08.726Z,11.80
2022-09-02T04:35:41.083Z,11.80
2022-09-02T04:38:08.750Z,11.80
2022-09-02T04:40:36.320Z,11.80
2022-09-02T04:43:03.778Z,11.80
2022-09-02T04:45:32.876Z,11.80
2022-09-02T04:48:01.226Z,11.80
2022-09-02T04:50:29.898Z,11.70
2022-09-02T04:53:00.072Z,11.70
2022-09-02T04:55:28.089Z,11.70
2022-09-02T04:57:55.736Z,11.80
2022-09-02T05:00:22.657Z,11.80
2022-09-02T05:02:49.606Z,11.80
2022-09-02T05:05:16.879Z,11.90
2022-09-02T05:07:43.657Z,11.90
2022-09-02T05:10:15.042Z,11.90
2022-09-02T05:12:43.468Z,11.90
2022-09-02T05:15:13.323Z,12.00
2022-09-02T05:17:40.462Z,12.00
2022-09-02T05:20:10.532Z,12.10
2022-09-02T05:22:38.421Z,12.10
2022-09-02T05:25:09.577Z,12.20
2022-09-02T05:27:37.376Z,12.30
2022-09-02T05:30:06.799Z,12.30
2022-09-02T05:32:37.722Z,12.30
2022-09-02T05:35:07.276Z,12.40
2022-09-02T05:37:36.017Z,12.50
2022-09-02T05:40:05.744Z,12.50
2022-09-02T05:42:36.138Z,12.60
2022-09-02T05:45:04.465Z,12.70
2022-09-02T05:47:34.589Z,12.70
2022-09-02T05:50:01.723Z,12.80
2022-09-02T05:52:32.906Z,12.80
2022-09-02T05:55:00.567Z,12.90
2022-09-02T05:57:27.462Z,13.10
2022-09-02T06:00:01.393Z,13.10
2022-09-02T06:02:40.713Z,13.30
2022-09-02T06:05:12.089Z,13.50
2022-09-02T06:07:43.538Z,13.70
2022-09-02T06:10:11.255Z,14.00
2022-09-02T06:12:42.431Z,14.10
2022-09-02T06:15:10.527Z,14.30
2022-09-02T06:17:39.489Z,14.40
2022-09-02T06:20:07.584Z,14.80
2022-09-02T06:22:35.573Z,15.10
2022-09-02T06:25:02.565Z,15.40
2022-09-02T06:27:29.936Z,15.90
2022-09-02T06:29:56.796Z,16.10
2022-09-02T06:32:25.704Z,16.50
2022-09-02T06:34:58.827Z,16.90
2022-09-02T06:37:27.101Z,17.10
2022-09-02T06:39:54.780Z,17.40
2022-09-02T06:42:25.648Z,17.50
2022-09-02T06:45:05.965Z,17.40
2022-09-02T06:47:34.251Z,17.40
2022-09-02T06:50:01.650Z,17.30
2022-09-02T06:52:28.770Z,17.30
2022-09-02T06:54:56.200Z,17.10
2022-09-02T06:57:30.422Z,17.00
2022-09-02T07:00:03.576Z,16.90
2022-09-02T07:02:33.254Z,16.70
2022-09-02T07:05:15.319Z,16.70
2022-09-02T07:07:45.955Z,16.70
2022-09-02T07:10:15.283Z,16.70
2022-09-02T07:12:46.652Z,16.70
2022-09-02T07:15:16.707Z,16.80
2022-09-02T07:17:44.821Z,16.80
2022-09-02T07:20:21.957Z,16.90
2022-09-02T07:22:56.376Z,17.00
2022-09-02T07:25:27.290Z,17.00
2022-09-02T07:27:54.692Z,17.10
2022-09-02T07:30:22.893Z,17.10
2022-09-02T07:32:56.676Z,17.20
2022-09-02T07:35:25.095Z,17.20
2022-09-02T07:37:52.455Z,17.30
2022-09-02T07:40:21.526Z,17.20
2022-09-02T07:42:48.483Z,17.20
2022-09-02T07:45:15.970Z,17.30
2022-09-02T07:47:45.131Z,17.40
2022-09-02T07:50:16.410Z,17.50
2022-09-02T07:52:44.610Z,17.50
2022-09-02T07:55:14.890Z,17.60
2022-09-02T07:57:43.617Z,17.60
2022-09-02T08:00:13.615Z,17.60
2022-09-02T08:02:47.617Z,17.70
2022-09-02T08:05:22.006Z,17.70
2022-09-02T08:07:49.065Z,17.80
2022-09-02T08:10:17.168Z,17.80
2022-09-02T08:12:44.551Z,17.80
2022-09-02T08:15:13.297Z,17.90
2022-09-02T08:17:41.105Z,18.00
2022-09-02T08:20:13.378Z,18.00
2022-09-02T08:22:41.095Z,18.20
2022-09-02T08:25:08.440Z,18.20
2022-09-02T08:27:36.182Z,18.30
2022-09-02T08:30:04.873Z,18.40
2022-09-02T08:32:32.903Z,18.50
2022-09-02T08:35:02.732Z,18.60
2022-09-02T08:37:31.447Z,18.60
2022-09-02T08:39:58.767Z,18.50
2022-09-02T08:42:33.533Z,18.50
2022-09-02T08:45:23.266Z,18.50
2022-09-02T08:47:58.404Z,18.60
2022-09-02T08:50:25.172Z,18.60
2022-09-02T08:53:10.885Z,18.70
2022-09-02T08:56:03.673Z,18.70
2022-09-02T08:58:39.195Z,18.70
2022-09-02T09:01:25.367Z,18.70
2022-09-02T09:04:06.175Z,18.70
2022-09-02T09:06:52.671Z,18.80
2022-09-02T09:09:19.396Z,18.90
2022-09-02T09:12:18.086Z,19.00
2022-09-02T09:15:12.087Z,19.10
2022-09-02T09:17:44.584Z,19.10
2022-09-02T09:20:20.766Z,19.00
2022-09-02T09:22:48.868Z,19.00
2022-09-02T09:25:17.216Z,19.10
2022-09-02T09:27:47.953Z,19.10
2022-09-02T09:30:15.793Z,19.10
2022-09-02T09:33:01.113Z,19.20
2022-09-02T09:35:46.575Z,19.20
2022-09-02T09:38:14.107Z,19.30
2022-09-02T09:40:41.196Z,19.40
2022-09-02T09:43:24.440Z,19.30
2022-09-02T09:45:51.879Z,19.30
2022-09-02T09:48:28.373Z,19.30
2022-09-02T09:50:55.138Z,19.30
2022-09-02T09:53:23.924Z,19.40
2022-09-02T09:56:05.275Z,19.40
2022-09-02T09:58:41.122Z,19.40
2022-09-02T10:01:12.333Z,19.40
2022-09-02T10:03:49.054Z,19.50
2022-09-02T10:06:36.085Z,19.50
2022-09-02T10:09:14.262Z,19.70
2022-09-02T10:11:54.439Z,19.80
2022-09-02T10:14:21.436Z,19.70
2022-09-02T10:16:53.449Z,19.70
2022-09-02T10:19:46.703Z,19.70
2022-09-02T10:22:58.732Z,19.80
2022-09-02T10:25:32.134Z,19.80
2022-09-02T10:28:04.065Z,19.80
2022-09-02T10:30:56.129Z,19.80
2022-09-02T10:34:05.343Z,19.90
2022-09-02T10:37:05.966Z,19.90
2022-09-02T10:40:05.042Z,19.90
2022-09-02T10:42:58.264Z,20.00
2022-09-02T10:45:51.841Z,19.90
2022-09-02T10:48:53.322Z,19.90
2022-09-02T10:51:46.551Z,19.90
2022-09-02T10:54:37.638Z,19.80
2022-09-02T10:57:31.565Z,19.80
2022-09-02T11:00:29.661Z,19.80
2022-09-02T11:03:41.784Z,19.80
2022-09-02T11:06:16.475Z,19.90
2022-09-02T11:08:49.292Z,20.10
2022-09-02T11:11:37.008Z,20.20
2022-09-02T11:14:37.876Z,20.30
2022-09-02T11:17:30.970Z,20.30
2022-09-02T11:20:27.378Z,20.40
2022-09-02T11:23:03.825Z,20.50
2022-09-02T11:25:39.557Z,20.60
2022-09-02T11:28:40.920Z,20.80
2022-09-02T11:31:39.417Z,20.90
2022-09-02T11:34:26.990Z,21.10
2022-09-02T11:36:53.835Z,20.90
2022-09-02T11:40:17.192Z,20.90
2022-09-02T11:42:49.420Z,21.10
2022-09-02T11:45:55.419Z,21.00
2022-09-02T11:48:36.956Z,20.80
2022-09-02T11:51:41.466Z,20.80
2022-09-02T11:54:14.603Z,20.80
2022-09-02T11:56:46.070Z,20.80
2022-09-02T11:59:51.084Z,20.70
2022-09-02T12:02:43.502Z,20.80
2022-09-02T12:05:35.312Z,20.90
2022-09-02T12:08:15.198Z,21.00
2022-09-02T12:10:49.302Z,21.10
2022-09-02T12:13:54.430Z,21.00
2022-09-02T12:16:21.336Z,21.30
2022-09-02T12:19:00.788Z,21.50
2022-09-02T12:21:30.118Z,21.60
2022-09-02T12:23:56.984Z,21.60
2022-09-02T12:26:36.013Z,21.70
2022-09-02T12:29:23.006Z,21.70
2022-09-02T12:31:51.825Z,21.50
2022-09-02T12:34:24.593Z,21.40
2022-09-02T12:36:54.708Z,21.20
2022-09-02T12:39:24.446Z,21.10
2022-09-02T12:42:10.711Z,21.10
2022-09-02T12:45:09.321Z,21.30
2022-09-02T12:47:55.232Z,21.30
2022-09-02T12:50:50.866Z,21.20
2022-09-02T12:53:23.495Z,21.10
2022-09-02T12:56:04.246Z,21.00
2022-09-02T12:58:57.794Z,21.00
2022-09-02T13:01:43.598Z,20.90
2022-09-02T13:04:29.455Z,20.80
2022-09-02T13:07:20.383Z,20.90
2022-09-02T13:10:24.299Z,21.10
2022-09-02T13:13:16.599Z,21.40
2022-09-02T13:16:03.348Z,21.50
2022-09-02T13:18:49.007Z,21.60
2022-09-02T13:21:22.338Z,21.80
2022-09-02T13:24:07.784Z,21.90
2022-09-02T13:26:54.733Z,22.10
2022-09-02T13:29:50.675Z,22.10
2022-09-02T13:32:20.507Z,22.10
2022-09-02T13:34:50.875Z,22.10
2022-09-02T13:37:43.378Z,22.00
2022-09-02T13:40:33.891Z,21.90
2022-09-02T13:43:15.788Z,21.90
2022-09-02T13:45:43.930Z,22.00
2022-09-02T13:48:15.676Z,22.10
2022-09-02T13:50:45.040Z,22.20
2022-09-02T13:56:11.889Z,22.30
2022-09-02T13:58:44.276Z,22.20
2022-09-02T14:01:39.995Z,22.10
2022-09-02T14:04:11.412Z,22.00
2022-09-02T14:06:42.164Z,21.90
2022-09-02T14:09:19.335Z,21.90
2022-09-02T14:11:48.058Z,22.00
2022-09-02T14:14:17.451Z,22.20
2022-09-02T14:16:44.330Z,22.30
2022-09-02T14:19:17.280Z,22.40
2022-09-02T14:21:50.402Z,22.40
2022-09-02T14:24:22.185Z,22.40
2022-09-02T14:26:54.453Z,22.40
2022-09-02T14:29:21.643Z,22.40
2022-09-02T14:32:21.083Z,22.40
2022-09-02T14:34:49.576Z,22.30
2022-09-02T14:37:26.942Z,22.20
2022-09-02T14:40:12.036Z,22.20
2022-09-02T14:42:55.222Z,22.40
2022-09-02T14:45:33.958Z,22.40
2022-09-02T14:48:03.484Z,22.50
2022-09-02T14:50:32.762Z,22.50
2022-09-02T14:53:11.197Z,22.60
2022-09-02T14:55:42.485Z,22.50
2022-09-02T14:58:09.315Z,22.50
2022-09-02T15:00:39.191Z,22.40
2022-09-02T15:03:07.210Z,22.40
2022-09-02T15:05:34.066Z,22.30
2022-09-02T15:08:00.896Z,22.20
2022-09-02T15:10:27.926Z,22.10
2022-09-02T15:12:57.443Z,22.00
2022-09-02T15:15:24.703Z,21.90
2022-09-02T15:17:51.531Z,21.90
2022-09-02T15:20:18.310Z,21.90
2022-09-02T15:22:45.481Z,21.90
2022-09-02T15:25:12.762Z,21.80
2022-09-02T15:27:39.618Z,21.90
2022-09-02T15:30:09.348Z,21.90
2022-09-02T15:32:37.699Z,21.90
2022-09-02T15:35:06.816Z,21.90
2022-09-02T15:37:37.317Z,21.80
2022-09-02T15:40:08.965Z,21.70
2022-09-02T15:42:39.350Z,21.70
2022-09-02T15:45:11.207Z,21.80
2022-09-02T15:47:38.679Z,21.80
2022-09-02T15:50:06.440Z,21.90
2022-09-02T15:52:36.603Z,21.90
2022-09-02T15:55:04.153Z,21.90
2022-09-02T15:57:31.077Z,21.80
2022-09-02T15:59:57.954Z,21.70
2022-09-02T16:02:24.923Z,21.60
2022-09-02T16:04:51.831Z,21.50
2022-09-02T16:07:18.766Z,21.40
2022-09-02T16:09:46.110Z,21.30
2022-09-02T16:12:13.300Z,21.30
2022-09-02T16:14:40.214Z,21.30
2022-09-02T16:17:08.993Z,21.30
2022-09-02T16:19:35.943Z,21.40
2022-09-02T16:22:02.796Z,21.50
2022-09-02T16:24:29.651Z,21.50
2022-09-02T16:26:56.464Z,21.60
2022-09-02T16:29:27.111Z,21.60
2022-09-02T16:32:23.631Z,21.60
2022-09-02T16:34:42.415Z,21.70
2022-09-02T16:37:09.301Z,21.70
2022-09-02T16:39:36.250Z,21.70
2022-09-02T16:42:04.595Z,21.70
2022-09-02T16:44:33.867Z,21.60
2022-09-02T16:47:00.758Z,21.50
2022-09-02T16:49:27.727Z,21.40
2022-09-02T16:51:58.593Z,21.40
2022-09-02T16:54:31.437Z,21.30
2022-09-02T16:57:01.115Z,21.30
2022-09-02T16:59:28.028Z,21.30
2022-09-02T17:01:55.373Z,21.30
2022-09-02T17:04:22.462Z,21.20
2022-09-02T17:06:49.361Z,21.20
2022-09-02T17:09:16.494Z,21.30
2022-09-02T17:11:45.215Z,21.20
2022-09-02T17:14:17.304Z,21.20
2022-09-02T17:16:46.274Z,21.20
2022-09-02T17:19:21.039Z,21.10
2022-09-02T17:21:53.182Z,21.10
2022-09-02T17:24:27.757Z,21.00
2022-09-02T17:26:56.275Z,21.00
2022-09-02T17:29:48.448Z,20.90
2022-09-02T17:32:11.968Z,20.80
2022-09-02T17:34:38.779Z,20.80
2022-09-02T17:37:06.017Z,20.70
2022-09-02T17:39:36.048Z,20.70
2022-09-02T17:42:05.187Z,20.60
2022-09-02T17:44:36.251Z,20.50
2022-09-02T17:47:20.041Z,20.40
2022-09-02T17:49:47.570Z,20.40
2022-09-02T17:52:20.325Z,20.30
2022-09-02T17:54:50.300Z,20.20
2022-09-02T17:57:32.959Z,20.20
2022-09-02T18:00:10.457Z,20.10
2022-09-02T18:02:45.889Z,20.10
2022-09-02T18:05:39.453Z,20.10
2022-09-02T18:08:28.997Z,20.00
2022-09-02T18:10:58.927Z,20.00
2022-09-02T18:13:34.311Z,19.90
2022-09-02T18:16:28.912Z,19.90
2022-09-02T18:19:13.722Z,19.80
2022-09-02T18:22:12.879Z,19.80
2022-09-02T18:25:01.229Z,19.70
2022-09-02T18:27:50.689Z,19.70
2022-09-02T18:30:38.447Z,19.60
2022-09-02T18:33:38.328Z,19.60
2022-09-02T18:36:28.617Z,19.60
2022-09-02T18:39:19.775Z,19.50
2022-09-02T18:42:24.234Z,19.50
2022-09-02T18:45:06.175Z,19.50
2022-09-02T18:47:45.749Z,19.50
2022-09-02T18:50:44.835Z,19.40
2022-09-02T18:53:15.469Z,19.40
2022-09-02T18:55:44.528Z,19.30
2022-09-02T18:58:33.997Z,19.20
2022-09-02T19:01:16.781Z,19.20
2022-09-02T19:03:43.687Z,19.10
2022-09-02T19:06:19.364Z,19.00
2022-09-02T19:08:47.676Z,19.00
2022-09-02T19:11:16.671Z,18.90
2022-09-02T19:13:50.663Z,18.90
2022-09-02T19:16:21.961Z,18.80
2022-09-02T19:18:49.780Z,18.80
2022-09-02T19:21:40.753Z,18.80
2022-09-02T19:24:16.943Z,18.60
2022-09-02T19:26:44.778Z,18.60
2022-09-02T19:29:15.568Z,18.60
2022-09-02T19:31:43.954Z,18.60
2022-09-02T19:34:11.187Z,18.50
2022-09-02T19:36:41.399Z,18.40
2022-09-02T19:39:08.223Z,18.40
2022-09-02T19:41:35.000Z,18.40
2022-09-02T19:44:02.058Z,18.30
2022-09-02T19:47:11.753Z,18.30
2022-09-02T19:49:16.729Z,18.20
2022-09-02T19:51:43.967Z,18.10
2022-09-02T19:54:13.805Z,18.10
2022-09-02T19:56:41.206Z,18.10
2022-09-02T19:59:08.414Z,18.10
2022-09-02T20:01:36.290Z,18.00
2022-09-02T20:04:04.228Z,18.00
2022-09-02T20:06:31.018Z,18.00
2022-09-02T20:08:57.898Z,17.90
2022-09-02T20:11:24.722Z,17.90
2022-09-02T20:13:51.485Z,17.90
2022-09-02T20:16:21.957Z,17.80
2022-09-02T20:18:50.073Z,17.80
2022-09-02T20:21:24.581Z,17.80
2022-09-02T20:23:53.738Z,17.70
2022-09-02T20:26:36.658Z,17.70
2022-09-02T20:29:34.109Z,17.60
2022-09-02T20:32:34.558Z,17.60
2022-09-02T20:35:22.167Z,17.60
2022-09-02T20:38:20.221Z,17.50
2022-09-02T20:40:52.987Z,17.50
2022-09-02T20:44:10.881Z,17.40
2022-09-02T20:47:00.729Z,17.40
2022-09-02T20:50:06.192Z,17.40
2022-09-02T20:52:56.440Z,17.30
2022-09-02T20:55:31.816Z,17.30
2022-09-02T20:58:22.371Z,17.30
2022-09-02T21:01:08.395Z,17.20
2022-09-02T21:04:19.826Z,17.20
2022-09-02T21:07:01.440Z,17.10
2022-09-02T21:09:44.229Z,17.10
2022-09-02T21:12:36.764Z,17.00
2022-09-02T21:15:27.632Z,17.00
2022-09-02T21:17:57.448Z,16.90
2022-09-02T21:20:37.062Z,16.90
2022-09-02T21:23:20.562Z,16.90
2022-09-02T21:26:00.172Z,16.90
2022-09-02T21:28:40.294Z,16.90
2022-09-02T21:31:31.711Z,16.90
2022-09-02T21:34:04.316Z,16.80
2022-09-02T21:36:33.325Z,16.80
2022-09-02T21:39:07.097Z,16.80
2022-09-02T21:41:37.830Z,16.70
2022-09-02T21:44:27.846Z,16.70
2022-09-02T21:47:01.541Z,16.70
2022-09-02T21:49:55.025Z,16.60
2022-09-02T21:53:00.254Z,16.60
2022-09-02T21:55:47.170Z,16.60
2022-09-02T21:58:23.201Z,16.50
2022-09-02T22:01:11.365Z,16.50
2022-09-02T22:03:52.648Z,16.50
2022-09-02T22:06:31.338Z,16.40
2022-09-02T22:09:10.867Z,16.30
2022-09-02T22:11:41.102Z,16.40
2022-09-02T22:14:14.372Z,16.30
2022-09-02T22:17:04.453Z,16.30
2022-09-02T22:19:38.823Z,16.20
2022-09-02T22:22:16.461Z,16.20
2022-09-02T22:24:47.598Z,16.20
2022-09-02T22:27:19.154Z,16.20
2022-09-02T22:29:50.583Z,16.20
2022-09-02T22:32:21.733Z,16.20
2022-09-02T22:35:27.779Z,16.20
2022-09-02T22:38:26.353Z,16.10
2022-09-02T22:41:14.798Z,16.10
2022-09-02T22:43:50.990Z,16.00
2022-09-02T22:46:43.049Z,16.00
2022-09-02T22:49:33.432Z,16.10
2022-09-02T22:52:48.612Z,16.10
2022-09-02T22:55:30.492Z,16.10
2022-09-02T22:58:06.976Z,16.10
2022-09-02T23:00:46.793Z,16.10
2022-09-02T23:03:21.895Z,16.00
2022-09-02T23:05:53.446Z,16.10
2022-09-02T23:08:21.724Z,16.10
2022-09-02T23:11:01.950Z,16.10
2022-09-02T23:13:53.234Z,16.10
2022-09-02T23:16:46.346Z,16.00
2022-09-02T23:19:25.932Z,16.00
2022-09-02T23:22:20.003Z,16.00
2022-09-02T23:24:57.355Z,15.90
2022-09-02T23:27:27.065Z,15.90
2022-09-02T23:29:54.972Z,15.90
2022-09-02T23:32:31.984Z,15.90
2022-09-02T23:35:28.091Z,15.90
2022-09-02T23:38:12.200Z,15.80
2022-09-02T23:40:51.739Z,15.80
2022-09-02T23:43:19.067Z,15.80
2022-09-02T23:45:47.289Z,15.70
2022-09-02T23:48:27.176Z,15.70
2022-09-02T23:51:08.667Z,15.70
2022-09-02T23:53:41.210Z,15.70
2022-09-02T23:56:23.493Z,15.60
2022-09-02T23:59:05.200Z,15.60
